sensor_id;sensor_type;location;lat;lon;timestamp;P1;durP1;ratioP1;P2;durP2;ratioP2
16892;SDS011;8563;52.242;9.098;2023-12-29T00:00:29;4.87;;;1.57;;
16892;SDS011;8563;52.242;9.098;2023-12-29T00:03:02;4.23;;;1.13;;
16892;SDS011;8563;52.242;9.098;2023-12-29T00:05:35;4.93;;;1.20;;
16892;SDS011;8563;52.242;9.098;2023-12-29T00:08:09;4.07;;;1.07;;
16892;SDS011;8563;52.242;9.098;2023-12-29T00:10:42;4.90;;;1.47;;
16892;SDS011;8563;52.242;9.098;2023-12-29T00:13:14;3.80;;;1.13;;
16892;SDS011;8563;52.242;9.098;2023-12-29T00:15:52;3.73;;;1.23;;
16892;SDS011;8563;52.242;9.098;2023-12-29T00:18:24;4.60;;;1.70;;
16892;SDS011;8563;52.242;9.098;2023-12-29T00:20:57;6.03;;;1.43;;
16892;SDS011;8563;52.242;9.098;2023-12-29T00:23:31;5.17;;;1.40;;
16892;SDS011;8563;52.242;9.098;2023-12-29T00:26:03;5.30;;;1.27;;
16892;SDS011;8563;52.242;9.098;2023-12-29T00:28:36;3.67;;;1.23;;
16892;SDS011;8563;52.242;9.098;2023-12-29T00:31:13;6.10;;;1.10;;
16892;SDS011;8563;52.242;9.098;2023-12-29T00:33:47;6.37;;;1.13;;
16892;SDS011;8563;52.242;9.098;2023-12-29T00:36:23;3.77;;;1.10;;
16892;SDS011;8563;52.242;9.098;2023-12-29T00:38:58;3.90;;;1.20;;
16892;SDS011;8563;52.242;9.098;2023-12-29T00:41:31;4.63;;;1.30;;
16892;SDS011;8563;52.242;9.098;2023-12-29T00:44:04;4.80;;;1.27;;
16892;SDS011;8563;52.242;9.098;2023-12-29T00:46:37;5.70;;;1.10;;
16892;SDS011;8563;52.242;9.098;2023-12-29T00:49:09;3.73;;;1.07;;
16892;SDS011;8563;52.242;9.098;2023-12-29T00:51:42;5.47;;;1.50;;
16892;SDS011;8563;52.242;9.098;2023-12-29T00:54:15;5.60;;;1.30;;
16892;SDS011;8563;52.242;9.098;2023-12-29T00:56:48;4.97;;;1.43;;
16892;SDS011;8563;52.242;9.098;2023-12-29T00:59:20;2.40;;;0.97;;
16892;SDS011;8563;52.242;9.098;2023-12-29T01:01:53;4.97;;;1.27;;
16892;SDS011;8563;52.242;9.098;2023-12-29T01:04:25;6.90;;;1.63;;
16892;SDS011;8563;52.242;9.098;2023-12-29T01:06:58;9.10;;;1.63;;
16892;SDS011;8563;52.242;9.098;2023-12-29T01:09:32;5.43;;;1.23;;
16892;SDS011;8563;52.242;9.098;2023-12-29T01:12:04;6.43;;;1.40;;
16892;SDS011;8563;52.242;9.098;2023-12-29T01:14:37;6.93;;;1.40;;
16892;SDS011;8563;52.242;9.098;2023-12-29T01:17:09;5.47;;;1.40;;
16892;SDS011;8563;52.242;9.098;2023-12-29T01:19:42;5.00;;;1.30;;
16892;SDS011;8563;52.242;9.098;2023-12-29T01:22:14;4.30;;;1.07;;
16892;SDS011;8563;52.242;9.098;2023-12-29T01:24:48;4.47;;;1.10;;
16892;SDS011;8563;52.242;9.098;2023-12-29T01:27:22;5.40;;;1.33;;
16892;SDS011;8563;52.242;9.098;2023-12-29T01:29:54;4.57;;;1.40;;
16892;SDS011;8563;52.242;9.098;2023-12-29T01:32:27;3.97;;;1.13;;
16892;SDS011;8563;52.242;9.098;2023-12-29T01:34:59;5.07;;;1.47;;
16892;SDS011;8563;52.242;9.098;2023-12-29T01:37:32;6.97;;;1.63;;
16892;SDS011;8563;52.242;9.098;2023-12-29T01:40:06;6.53;;;1.30;;
16892;SDS011;8563;52.242;9.098;2023-12-29T01:42:40;2.77;;;1.20;;
16892;SDS011;8563;52.242;9.098;2023-12-29T01:45:15;7.70;;;1.37;;
16892;SDS011;8563;52.242;9.098;2023-12-29T01:47:52;4.63;;;1.50;;
16892;SDS011;8563;52.242;9.098;2023-12-29T01:50:25;5.77;;;1.13;;
16892;SDS011;8563;52.242;9.098;2023-12-29T01:52:57;4.80;;;1.40;;
16892;SDS011;8563;52.242;9.098;2023-12-29T01:55:31;4.43;;;1.47;;
16892;SDS011;8563;52.242;9.098;2023-12-29T01:58:04;5.80;;;1.20;;
16892;SDS011;8563;52.242;9.098;2023-12-29T02:00:37;5.93;;;1.10;;
16892;SDS011;8563;52.242;9.098;2023-12-29T02:03:09;4.73;;;1.17;;
16892;SDS011;8563;52.242;9.098;2023-12-29T02:05:42;4.90;;;1.37;;
16892;SDS011;8563;52.242;9.098;2023-12-29T02:08:14;5.33;;;1.17;;
16892;SDS011;8563;52.242;9.098;2023-12-29T02:10:49;6.23;;;1.27;;
16892;SDS011;8563;52.242;9.098;2023-12-29T02:13:22;4.00;;;1.10;;
16892;SDS011;8563;52.242;9.098;2023-12-29T02:15:54;9.13;;;1.30;;
16892;SDS011;8563;52.242;9.098;2023-12-29T02:18:28;5.63;;;1.30;;
16892;SDS011;8563;52.242;9.098;2023-12-29T02:21:02;4.93;;;1.20;;
16892;SDS011;8563;52.242;9.098;2023-12-29T02:23:35;10.00;;;1.80;;
16892;SDS011;8563;52.242;9.098;2023-12-29T02:26:09;6.83;;;1.47;;
16892;SDS011;8563;52.242;9.098;2023-12-29T02:28:43;7.17;;;1.50;;
16892;SDS011;8563;52.242;9.098;2023-12-29T02:31:18;5.63;;;1.20;;
16892;SDS011;8563;52.242;9.098;2023-12-29T02:33:51;4.43;;;1.20;;
16892;SDS011;8563;52.242;9.098;2023-12-29T02:36:24;4.20;;;1.00;;
16892;SDS011;8563;52.242;9.098;2023-12-29T02:38:57;7.13;;;1.37;;
16892;SDS011;8563;52.242;9.098;2023-12-29T02:41:32;4.97;;;1.20;;
16892;SDS011;8563;52.242;9.098;2023-12-29T02:44:05;5.63;;;1.40;;
16892;SDS011;8563;52.242;9.098;2023-12-29T02:46:37;4.73;;;1.20;;
16892;SDS011;8563;52.242;9.098;2023-12-29T02:49:10;6.37;;;1.37;;
16892;SDS011;8563;52.242;9.098;2023-12-29T02:51:43;6.43;;;1.37;;
16892;SDS011;8563;52.242;9.098;2023-12-29T02:54:18;3.43;;;1.20;;
16892;SDS011;8563;52.242;9.098;2023-12-29T02:56:52;4.07;;;0.97;;
16892;SDS011;8563;52.242;9.098;2023-12-29T02:59:24;4.77;;;1.37;;
16892;SDS011;8563;52.242;9.098;2023-12-29T03:01:57;3.27;;;0.97;;
16892;SDS011;8563;52.242;9.098;2023-12-29T03:04:29;4.73;;;1.63;;
16892;SDS011;8563;52.242;9.098;2023-12-29T03:07:01;3.67;;;1.10;;
16892;SDS011;8563;52.242;9.098;2023-12-29T03:09:34;3.73;;;0.77;;
16892;SDS011;8563;52.242;9.098;2023-12-29T03:12:09;2.37;;;0.83;;
16892;SDS011;8563;52.242;9.098;2023-12-29T03:14:41;4.00;;;1.03;;
16892;SDS011;8563;52.242;9.098;2023-12-29T03:17:14;3.70;;;0.90;;
16892;SDS011;8563;52.242;9.098;2023-12-29T03:19:46;4.93;;;1.10;;
16892;SDS011;8563;52.242;9.098;2023-12-29T03:22:19;2.57;;;0.63;;
16892;SDS011;8563;52.242;9.098;2023-12-29T03:24:51;2.07;;;0.60;;
16892;SDS011;8563;52.242;9.098;2023-12-29T03:27:25;2.50;;;0.73;;
16892;SDS011;8563;52.242;9.098;2023-12-29T03:29:59;2.73;;;1.00;;
16892;SDS011;8563;52.242;9.098;2023-12-29T03:32:32;3.50;;;0.97;;
16892;SDS011;8563;52.242;9.098;2023-12-29T03:35:04;5.07;;;1.20;;
16892;SDS011;8563;52.242;9.098;2023-12-29T03:37:37;3.83;;;0.80;;
16892;SDS011;8563;52.242;9.098;2023-12-29T03:40:11;2.83;;;0.90;;
16892;SDS011;8563;52.242;9.098;2023-12-29T03:42:45;3.00;;;0.90;;
16892;SDS011;8563;52.242;9.098;2023-12-29T03:45:17;3.33;;;0.83;;
16892;SDS011;8563;52.242;9.098;2023-12-29T03:47:51;2.43;;;0.80;;
16892;SDS011;8563;52.242;9.098;2023-12-29T03:50:23;2.77;;;1.10;;
16892;SDS011;8563;52.242;9.098;2023-12-29T03:52:56;3.40;;;1.07;;
16892;SDS011;8563;52.242;9.098;2023-12-29T03:55:28;2.97;;;0.90;;
16892;SDS011;8563;52.242;9.098;2023-12-29T03:58:03;5.03;;;1.00;;
16892;SDS011;8563;52.242;9.098;2023-12-29T04:00:36;3.60;;;1.00;;
16892;SDS011;8563;52.242;9.098;2023-12-29T04:03:11;3.73;;;1.00;;
16892;SDS011;8563;52.242;9.098;2023-12-29T04:05:44;3.77;;;1.17;;
16892;SDS011;8563;52.242;9.098;2023-12-29T04:08:16;6.13;;;1.07;;
16892;SDS011;8563;52.242;9.098;2023-12-29T04:10:49;3.17;;;1.10;;
16892;SDS011;8563;52.242;9.098;2023-12-29T04:13:23;1.20;;;0.70;;
16892;SDS011;8563;52.242;9.098;2023-12-29T04:15:55;1.93;;;0.93;;
16892;SDS011;8563;52.242;9.098;2023-12-29T04:18:28;1.70;;;0.60;;
16892;SDS011;8563;52.242;9.098;2023-12-29T04:21:01;2.53;;;0.87;;
16892;SDS011;8563;52.242;9.098;2023-12-29T04:23:33;2.60;;;0.80;;
16892;SDS011;8563;52.242;9.098;2023-12-29T04:26:05;4.30;;;0.80;;
16892;SDS011;8563;52.242;9.098;2023-12-29T04:28:39;4.87;;;0.80;;
16892;SDS011;8563;52.242;9.098;2023-12-29T04:31:11;4.07;;;0.97;;
16892;SDS011;8563;52.242;9.098;2023-12-29T04:33:44;3.77;;;0.97;;
16892;SDS011;8563;52.242;9.098;2023-12-29T04:36:16;2.53;;;0.90;;
16892;SDS011;8563;52.242;9.098;2023-12-29T04:38:49;1.67;;;0.73;;
16892;SDS011;8563;52.242;9.098;2023-12-29T04:41:21;3.47;;;0.93;;
16892;SDS011;8563;52.242;9.098;2023-12-29T04:43:55;3.60;;;1.10;;
16892;SDS011;8563;52.242;9.098;2023-12-29T04:46:28;4.30;;;1.30;;
16892;SDS011;8563;52.242;9.098;2023-12-29T04:49:01;2.73;;;1.20;;
16892;SDS011;8563;52.242;9.098;2023-12-29T04:51:33;2.67;;;1.10;;
16892;SDS011;8563;52.242;9.098;2023-12-29T04:54:06;3.87;;;1.20;;
16892;SDS011;8563;52.242;9.098;2023-12-29T04:56:38;3.17;;;1.23;;
16892;SDS011;8563;52.242;9.098;2023-12-29T04:59:12;3.73;;;1.23;;
16892;SDS011;8563;52.242;9.098;2023-12-29T05:01:45;3.37;;;1.20;;
16892;SDS011;8563;52.242;9.098;2023-12-29T05:04:17;4.23;;;1.17;;
16892;SDS011;8563;52.242;9.098;2023-12-29T05:06:50;4.53;;;1.30;;
16892;SDS011;8563;52.242;9.098;2023-12-29T05:09:22;5.17;;;0.90;;
16892;SDS011;8563;52.242;9.098;2023-12-29T05:11:55;4.97;;;1.20;;
16892;SDS011;8563;52.242;9.098;2023-12-29T05:14:29;4.23;;;1.10;;
16892;SDS011;8563;52.242;9.098;2023-12-29T05:17:01;6.67;;;2.00;;
16892;SDS011;8563;52.242;9.098;2023-12-29T05:19:33;6.03;;;1.60;;
16892;SDS011;8563;52.242;9.098;2023-12-29T05:22:06;4.20;;;1.50;;
16892;SDS011;8563;52.242;9.098;2023-12-29T05:24:39;5.10;;;1.57;;
16892;SDS011;8563;52.242;9.098;2023-12-29T05:27:12;5.90;;;1.47;;
16892;SDS011;8563;52.242;9.098;2023-12-29T05:29:45;7.60;;;1.63;;
16892;SDS011;8563;52.242;9.098;2023-12-29T05:32:18;5.60;;;1.83;;
16892;SDS011;8563;52.242;9.098;2023-12-29T05:34:51;5.40;;;1.80;;
16892;SDS011;8563;52.242;9.098;2023-12-29T05:37:23;4.40;;;1.60;;
16892;SDS011;8563;52.242;9.098;2023-12-29T05:39:56;4.53;;;1.87;;
16892;SDS011;8563;52.242;9.098;2023-12-29T05:42:28;4.90;;;1.47;;
16892;SDS011;8563;52.242;9.098;2023-12-29T05:45:02;4.93;;;1.87;;
16892;SDS011;8563;52.242;9.098;2023-12-29T05:47:35;4.40;;;1.47;;
16892;SDS011;8563;52.242;9.098;2023-12-29T05:50:08;6.77;;;1.93;;
16892;SDS011;8563;52.242;9.098;2023-12-29T05:52:40;5.27;;;1.47;;
16892;SDS011;8563;52.242;9.098;2023-12-29T05:55:13;8.47;;;2.00;;
16892;SDS011;8563;52.242;9.098;2023-12-29T05:57:46;9.33;;;1.77;;
16892;SDS011;8563;52.242;9.098;2023-12-29T06:00:20;6.93;;;1.67;;
16892;SDS011;8563;52.242;9.098;2023-12-29T06:02:53;3.63;;;1.53;;
16892;SDS011;8563;52.242;9.098;2023-12-29T06:05:25;4.63;;;1.70;;
16892;SDS011;8563;52.242;9.098;2023-12-29T06:07:58;4.73;;;1.90;;
16892;SDS011;8563;52.242;9.098;2023-12-29T06:10:30;5.33;;;1.60;;
16892;SDS011;8563;52.242;9.098;2023-12-29T06:13:03;6.23;;;1.70;;
16892;SDS011;8563;52.242;9.098;2023-12-29T06:15:37;7.43;;;1.80;;
16892;SDS011;8563;52.242;9.098;2023-12-29T06:18:10;8.40;;;1.90;;
16892;SDS011;8563;52.242;9.098;2023-12-29T06:20:42;5.77;;;1.50;;
16892;SDS011;8563;52.242;9.098;2023-12-29T06:23:15;5.43;;;1.40;;
16892;SDS011;8563;52.242;9.098;2023-12-29T06:25:48;7.30;;;1.80;;
16892;SDS011;8563;52.242;9.098;2023-12-29T06:28:20;4.80;;;1.57;;
16892;SDS011;8563;52.242;9.098;2023-12-29T06:30:54;4.77;;;1.50;;
16892;SDS011;8563;52.242;9.098;2023-12-29T06:33:27;3.87;;;1.40;;
16892;SDS011;8563;52.242;9.098;2023-12-29T06:35:59;6.23;;;2.00;;
16892;SDS011;8563;52.242;9.098;2023-12-29T06:38:32;7.87;;;2.00;;
16892;SDS011;8563;52.242;9.098;2023-12-29T06:41:04;5.33;;;1.50;;
16892;SDS011;8563;52.242;9.098;2023-12-29T06:43:37;8.17;;;1.80;;
16892;SDS011;8563;52.242;9.098;2023-12-29T06:46:11;8.47;;;1.77;;
16892;SDS011;8563;52.242;9.098;2023-12-29T06:48:44;8.13;;;2.07;;
16892;SDS011;8563;52.242;9.098;2023-12-29T06:51:18;7.40;;;1.83;;
16892;SDS011;8563;52.242;9.098;2023-12-29T06:53:50;7.20;;;1.50;;
16892;SDS011;8563;52.242;9.098;2023-12-29T06:56:23;7.27;;;1.60;;
16892;SDS011;8563;52.242;9.098;2023-12-29T06:58:56;6.97;;;1.83;;
16892;SDS011;8563;52.242;9.098;2023-12-29T07:01:30;8.00;;;2.10;;
16892;SDS011;8563;52.242;9.098;2023-12-29T07:04:03;7.10;;;2.00;;
16892;SDS011;8563;52.242;9.098;2023-12-29T07:06:35;5.17;;;1.77;;
16892;SDS011;8563;52.242;9.098;2023-12-29T07:09:08;6.63;;;1.60;;
16892;SDS011;8563;52.242;9.098;2023-12-29T07:11:40;6.17;;;1.57;;
16892;SDS011;8563;52.242;9.098;2023-12-29T07:14:13;6.13;;;1.67;;
16892;SDS011;8563;52.242;9.098;2023-12-29T07:16:47;6.80;;;1.63;;
16892;SDS011;8563;52.242;9.098;2023-12-29T07:19:19;8.60;;;1.90;;
16892;SDS011;8563;52.242;9.098;2023-12-29T07:21:52;6.33;;;1.57;;
16892;SDS011;8563;52.242;9.098;2023-12-29T07:24:24;5.87;;;1.60;;
16892;SDS011;8563;52.242;9.098;2023-12-29T07:26:57;7.10;;;1.90;;
16892;SDS011;8563;52.242;9.098;2023-12-29T07:29:29;3.57;;;1.17;;
16892;SDS011;8563;52.242;9.098;2023-12-29T07:32:03;4.87;;;1.70;;
16892;SDS011;8563;52.242;9.098;2023-12-29T07:34:36;8.77;;;1.93;;
16892;SDS011;8563;52.242;9.098;2023-12-29T07:37:08;5.67;;;1.70;;
16892;SDS011;8563;52.242;9.098;2023-12-29T07:39:41;8.47;;;1.90;;
16892;SDS011;8563;52.242;9.098;2023-12-29T07:42:13;8.03;;;1.80;;
16892;SDS011;8563;52.242;9.098;2023-12-29T07:44:47;5.33;;;1.70;;
16892;SDS011;8563;52.242;9.098;2023-12-29T07:47:21;9.07;;;1.70;;
16892;SDS011;8563;52.242;9.098;2023-12-29T07:49:53;8.93;;;2.10;;
16892;SDS011;8563;52.242;9.098;2023-12-29T07:52:26;7.47;;;1.83;;
16892;SDS011;8563;52.242;9.098;2023-12-29T07:54:58;7.33;;;1.87;;
16892;SDS011;8563;52.242;9.098;2023-12-29T07:57:31;6.90;;;1.77;;
16892;SDS011;8563;52.242;9.098;2023-12-29T08:00:04;7.40;;;2.03;;
16892;SDS011;8563;52.242;9.098;2023-12-29T08:02:43;7.70;;;1.77;;
16892;SDS011;8563;52.242;9.098;2023-12-29T08:05:16;6.50;;;1.70;;
16892;SDS011;8563;52.242;9.098;2023-12-29T08:07:49;6.90;;;1.70;;
16892;SDS011;8563;52.242;9.098;2023-12-29T08:10:21;6.73;;;1.67;;
16892;SDS011;8563;52.242;9.098;2023-12-29T08:12:54;10.13;;;1.80;;
16892;SDS011;8563;52.242;9.098;2023-12-29T08:15:26;7.27;;;2.10;;
16892;SDS011;8563;52.242;9.098;2023-12-29T08:18:00;7.47;;;1.60;;
16892;SDS011;8563;52.242;9.098;2023-12-29T08:20:33;7.43;;;1.80;;
16892;SDS011;8563;52.242;9.098;2023-12-29T08:23:05;9.07;;;2.13;;
16892;SDS011;8563;52.242;9.098;2023-12-29T08:25:37;9.40;;;2.07;;
16892;SDS011;8563;52.242;9.098;2023-12-29T08:28:10;7.07;;;1.90;;
16892;SDS011;8563;52.242;9.098;2023-12-29T08:30:42;10.53;;;2.07;;
16892;SDS011;8563;52.242;9.098;2023-12-29T08:33:17;6.47;;;2.00;;
16892;SDS011;8563;52.242;9.098;2023-12-29T08:35:50;8.43;;;1.67;;
16892;SDS011;8563;52.242;9.098;2023-12-29T08:38:22;6.63;;;2.23;;
16892;SDS011;8563;52.242;9.098;2023-12-29T08:40:54;11.60;;;2.30;;
16892;SDS011;8563;52.242;9.098;2023-12-29T08:43:27;8.73;;;1.73;;
16892;SDS011;8563;52.242;9.098;2023-12-29T08:45:59;8.43;;;1.53;;
16892;SDS011;8563;52.242;9.098;2023-12-29T08:48:33;6.67;;;1.83;;
16892;SDS011;8563;52.242;9.098;2023-12-29T08:51:06;6.83;;;1.63;;
16892;SDS011;8563;52.242;9.098;2023-12-29T08:53:38;7.83;;;1.97;;
16892;SDS011;8563;52.242;9.098;2023-12-29T08:56:11;6.10;;;1.53;;
16892;SDS011;8563;52.242;9.098;2023-12-29T08:58:43;9.80;;;2.13;;
16892;SDS011;8563;52.242;9.098;2023-12-29T09:01:17;5.23;;;1.50;;
16892;SDS011;8563;52.242;9.098;2023-12-29T09:03:51;5.90;;;1.47;;
16892;SDS011;8563;52.242;9.098;2023-12-29T09:06:23;8.53;;;1.60;;
16892;SDS011;8563;52.242;9.098;2023-12-29T09:08:55;6.90;;;1.87;;
16892;SDS011;8563;52.242;9.098;2023-12-29T09:11:28;6.90;;;1.90;;
16892;SDS011;8563;52.242;9.098;2023-12-29T09:14:01;6.57;;;1.30;;
16892;SDS011;8563;52.242;9.098;2023-12-29T09:16:34;7.70;;;1.50;;
16892;SDS011;8563;52.242;9.098;2023-12-29T09:19:08;6.67;;;1.47;;
16892;SDS011;8563;52.242;9.098;2023-12-29T09:21:41;7.03;;;2.00;;
16892;SDS011;8563;52.242;9.098;2023-12-29T09:24:13;8.50;;;2.03;;
16892;SDS011;8563;52.242;9.098;2023-12-29T09:26:45;7.10;;;1.57;;
16892;SDS011;8563;52.242;9.098;2023-12-29T09:29:18;4.30;;;1.23;;
16892;SDS011;8563;52.242;9.098;2023-12-29T09:31:50;3.93;;;1.40;;
16892;SDS011;8563;52.242;9.098;2023-12-29T09:34:24;5.33;;;1.10;;
16892;SDS011;8563;52.242;9.098;2023-12-29T09:36:57;6.20;;;1.30;;
16892;SDS011;8563;52.242;9.098;2023-12-29T09:39:29;4.73;;;1.47;;
16892;SDS011;8563;52.242;9.098;2023-12-29T09:42:03;6.63;;;1.40;;
16892;SDS011;8563;52.242;9.098;2023-12-29T09:44:35;2.33;;;1.20;;
16892;SDS011;8563;52.242;9.098;2023-12-29T09:47:08;3.83;;;1.00;;
16892;SDS011;8563;52.242;9.098;2023-12-29T09:49:46;3.37;;;1.17;;
16892;SDS011;8563;52.242;9.098;2023-12-29T09:52:18;3.47;;;1.00;;
16892;SDS011;8563;52.242;9.098;2023-12-29T09:54:52;3.97;;;1.23;;
16892;SDS011;8563;52.242;9.098;2023-12-29T09:57:24;3.30;;;0.97;;
16892;SDS011;8563;52.242;9.098;2023-12-29T09:59:57;4.93;;;1.17;;
16892;SDS011;8563;52.242;9.098;2023-12-29T10:02:30;4.33;;;1.27;;
16892;SDS011;8563;52.242;9.098;2023-12-29T10:05:04;5.67;;;1.03;;
16892;SDS011;8563;52.242;9.098;2023-12-29T10:07:37;3.90;;;1.03;;
16892;SDS011;8563;52.242;9.098;2023-12-29T10:10:12;5.60;;;1.40;;
16892;SDS011;8563;52.242;9.098;2023-12-29T10:12:47;4.30;;;1.30;;
16892;SDS011;8563;52.242;9.098;2023-12-29T10:15:20;4.30;;;1.00;;
16892;SDS011;8563;52.242;9.098;2023-12-29T10:17:56;2.40;;;0.80;;
16892;SDS011;8563;52.242;9.098;2023-12-29T10:20:36;5.40;;;1.27;;
16892;SDS011;8563;52.242;9.098;2023-12-29T10:23:11;3.27;;;0.80;;
16892;SDS011;8563;52.242;9.098;2023-12-29T10:25:47;3.10;;;1.07;;
16892;SDS011;8563;52.242;9.098;2023-12-29T10:28:19;5.43;;;1.20;;
16892;SDS011;8563;52.242;9.098;2023-12-29T10:30:53;2.83;;;0.90;;
16892;SDS011;8563;52.242;9.098;2023-12-29T10:33:25;2.37;;;0.80;;
16892;SDS011;8563;52.242;9.098;2023-12-29T10:36:02;5.33;;;0.90;;
16892;SDS011;8563;52.242;9.098;2023-12-29T10:38:38;4.40;;;1.00;;
16892;SDS011;8563;52.242;9.098;2023-12-29T10:41:12;4.07;;;1.00;;
16892;SDS011;8563;52.242;9.098;2023-12-29T10:43:45;3.40;;;1.00;;
16892;SDS011;8563;52.242;9.098;2023-12-29T10:46:22;3.40;;;1.00;;
16892;SDS011;8563;52.242;9.098;2023-12-29T10:48:59;2.83;;;0.77;;
16892;SDS011;8563;52.242;9.098;2023-12-29T10:51:40;2.67;;;0.80;;
16892;SDS011;8563;52.242;9.098;2023-12-29T10:54:18;3.03;;;0.80;;
16892;SDS011;8563;52.242;9.098;2023-12-29T10:57:00;4.50;;;1.03;;
16892;SDS011;8563;52.242;9.098;2023-12-29T10:59:34;3.90;;;1.13;;
16892;SDS011;8563;52.242;9.098;2023-12-29T11:02:07;3.83;;;1.10;;
16892;SDS011;8563;52.242;9.098;2023-12-29T11:04:45;4.07;;;1.07;;
16892;SDS011;8563;52.242;9.098;2023-12-29T11:07:19;2.20;;;0.70;;
16892;SDS011;8563;52.242;9.098;2023-12-29T11:10:03;2.90;;;0.90;;
16892;SDS011;8563;52.242;9.098;2023-12-29T11:12:36;2.50;;;0.90;;
16892;SDS011;8563;52.242;9.098;2023-12-29T11:15:09;2.17;;;0.83;;
16892;SDS011;8563;52.242;9.098;2023-12-29T11:17:45;3.40;;;1.47;;
16892;SDS011;8563;52.242;9.098;2023-12-29T11:20:20;2.70;;;1.00;;
16892;SDS011;8563;52.242;9.098;2023-12-29T11:22:54;2.57;;;1.47;;
16892;SDS011;8563;52.242;9.098;2023-12-29T11:25:27;1.50;;;0.90;;
16892;SDS011;8563;52.242;9.098;2023-12-29T11:27:59;3.17;;;1.00;;
16892;SDS011;8563;52.242;9.098;2023-12-29T11:30:32;2.53;;;0.70;;
16892;SDS011;8563;52.242;9.098;2023-12-29T11:33:06;1.87;;;1.10;;
16892;SDS011;8563;52.242;9.098;2023-12-29T11:35:43;2.63;;;1.20;;
16892;SDS011;8563;52.242;9.098;2023-12-29T11:38:37;1.90;;;1.03;;
16892;SDS011;8563;52.242;9.098;2023-12-29T11:41:12;3.03;;;1.10;;
16892;SDS011;8563;52.242;9.098;2023-12-29T11:43:48;3.37;;;1.07;;
16892;SDS011;8563;52.242;9.098;2023-12-29T11:46:34;3.33;;;1.10;;
16892;SDS011;8563;52.242;9.098;2023-12-29T11:49:07;2.83;;;0.90;;
16892;SDS011;8563;52.242;9.098;2023-12-29T11:51:40;2.50;;;0.83;;
16892;SDS011;8563;52.242;9.098;2023-12-29T11:54:21;1.43;;;0.70;;
16892;SDS011;8563;52.242;9.098;2023-12-29T11:56:54;2.07;;;0.70;;
16892;SDS011;8563;52.242;9.098;2023-12-29T11:59:26;1.33;;;0.50;;
16892;SDS011;8563;52.242;9.098;2023-12-29T12:01:58;2.20;;;0.63;;
16892;SDS011;8563;52.242;9.098;2023-12-29T12:04:33;2.60;;;0.80;;
16892;SDS011;8563;52.242;9.098;2023-12-29T12:07:06;2.20;;;0.63;;
16892;SDS011;8563;52.242;9.098;2023-12-29T12:09:40;1.53;;;0.60;;
16892;SDS011;8563;52.242;9.098;2023-12-29T12:12:13;7.03;;;6.23;;
16892;SDS011;8563;52.242;9.098;2023-12-29T12:14:47;2.53;;;1.90;;
16892;SDS011;8563;52.242;9.098;2023-12-29T12:17:26;2.20;;;0.80;;
16892;SDS011;8563;52.242;9.098;2023-12-29T12:20:00;1.37;;;0.80;;
16892;SDS011;8563;52.242;9.098;2023-12-29T12:22:33;1.27;;;0.60;;
16892;SDS011;8563;52.242;9.098;2023-12-29T12:25:08;1.70;;;0.80;;
16892;SDS011;8563;52.242;9.098;2023-12-29T12:27:43;1.63;;;0.60;;
16892;SDS011;8563;52.242;9.098;2023-12-29T12:30:18;1.43;;;0.50;;
16892;SDS011;8563;52.242;9.098;2023-12-29T12:32:56;0.73;;;0.57;;
16892;SDS011;8563;52.242;9.098;2023-12-29T12:35:29;1.03;;;0.50;;
16892;SDS011;8563;52.242;9.098;2023-12-29T12:38:08;1.00;;;0.60;;
16892;SDS011;8563;52.242;9.098;2023-12-29T12:40:42;0.90;;;0.70;;
16892;SDS011;8563;52.242;9.098;2023-12-29T12:43:14;0.70;;;0.50;;
16892;SDS011;8563;52.242;9.098;2023-12-29T12:45:48;0.70;;;0.40;;
16892;SDS011;8563;52.242;9.098;2023-12-29T12:48:21;2.17;;;0.67;;
16892;SDS011;8563;52.242;9.098;2023-12-29T12:50:54;1.07;;;0.50;;
16892;SDS011;8563;52.242;9.098;2023-12-29T12:53:29;1.70;;;0.57;;
16892;SDS011;8563;52.242;9.098;2023-12-29T12:56:04;1.40;;;0.50;;
16892;SDS011;8563;52.242;9.098;2023-12-29T12:58:38;0.67;;;0.57;;
16892;SDS011;8563;52.242;9.098;2023-12-29T13:01:11;1.43;;;0.60;;
16892;SDS011;8563;52.242;9.098;2023-12-29T13:03:43;1.33;;;0.60;;
16892;SDS011;8563;52.242;9.098;2023-12-29T13:06:16;0.80;;;0.60;;
16892;SDS011;8563;52.242;9.098;2023-12-29T13:08:50;0.80;;;0.53;;
16892;SDS011;8563;52.242;9.098;2023-12-29T13:11:24;1.87;;;0.80;;
16892;SDS011;8563;52.242;9.098;2023-12-29T13:13:57;0.97;;;0.60;;
16892;SDS011;8563;52.242;9.098;2023-12-29T13:16:31;2.17;;;0.93;;
16892;SDS011;8563;52.242;9.098;2023-12-29T13:19:16;1.30;;;0.60;;
16892;SDS011;8563;52.242;9.098;2023-12-29T13:21:50;1.97;;;0.67;;
16892;SDS011;8563;52.242;9.098;2023-12-29T13:24:24;2.37;;;0.70;;
16892;SDS011;8563;52.242;9.098;2023-12-29T13:27:02;1.33;;;0.87;;
16892;SDS011;8563;52.242;9.098;2023-12-29T13:29:35;1.90;;;0.80;;
16892;SDS011;8563;52.242;9.098;2023-12-29T13:32:09;2.50;;;0.80;;
16892;SDS011;8563;52.242;9.098;2023-12-29T13:34:47;3.23;;;0.73;;
16892;SDS011;8563;52.242;9.098;2023-12-29T13:37:23;2.03;;;0.90;;
16892;SDS011;8563;52.242;9.098;2023-12-29T13:39:59;1.67;;;0.80;;
16892;SDS011;8563;52.242;9.098;2023-12-29T13:42:35;2.37;;;0.70;;
16892;SDS011;8563;52.242;9.098;2023-12-29T13:45:10;1.60;;;0.70;;
16892;SDS011;8563;52.242;9.098;2023-12-29T13:47:43;1.23;;;0.63;;
16892;SDS011;8563;52.242;9.098;2023-12-29T13:50:16;1.83;;;0.80;;
16892;SDS011;8563;52.242;9.098;2023-12-29T13:52:49;1.27;;;0.67;;
16892;SDS011;8563;52.242;9.098;2023-12-29T13:55:21;2.23;;;0.83;;
16892;SDS011;8563;52.242;9.098;2023-12-29T13:57:55;3.40;;;0.70;;
16892;SDS011;8563;52.242;9.098;2023-12-29T14:00:27;1.57;;;0.80;;
16892;SDS011;8563;52.242;9.098;2023-12-29T14:03:01;1.20;;;0.70;;
16892;SDS011;8563;52.242;9.098;2023-12-29T14:05:35;1.73;;;0.87;;
16892;SDS011;8563;52.242;9.098;2023-12-29T14:08:08;2.07;;;0.67;;
16892;SDS011;8563;52.242;9.098;2023-12-29T14:10:42;2.33;;;0.83;;
16892;SDS011;8563;52.242;9.098;2023-12-29T14:13:16;4.53;;;0.87;;
16892;SDS011;8563;52.242;9.098;2023-12-29T14:15:49;2.40;;;0.80;;
16892;SDS011;8563;52.242;9.098;2023-12-29T14:21:22;3.60;;;0.80;;
16892;SDS011;8563;52.242;9.098;2023-12-29T14:24:01;3.43;;;1.10;;
16892;SDS011;8563;52.242;9.098;2023-12-29T14:26:35;1.77;;;0.80;;
16892;SDS011;8563;52.242;9.098;2023-12-29T14:29:09;2.10;;;0.80;;
16892;SDS011;8563;52.242;9.098;2023-12-29T14:31:42;3.47;;;1.07;;
16892;SDS011;8563;52.242;9.098;2023-12-29T14:34:15;1.93;;;0.90;;
16892;SDS011;8563;52.242;9.098;2023-12-29T14:36:47;2.87;;;0.90;;
16892;SDS011;8563;52.242;9.098;2023-12-29T14:39:20;5.13;;;2.93;;
16892;SDS011;8563;52.242;9.098;2023-12-29T14:41:52;1.87;;;0.90;;
16892;SDS011;8563;52.242;9.098;2023-12-29T14:44:26;3.83;;;1.10;;
16892;SDS011;8563;52.242;9.098;2023-12-29T14:46:59;4.90;;;0.97;;
16892;SDS011;8563;52.242;9.098;2023-12-29T14:49:31;3.50;;;0.83;;
16892;SDS011;8563;52.242;9.098;2023-12-29T14:52:04;3.60;;;1.00;;
16892;SDS011;8563;52.242;9.098;2023-12-29T14:54:37;6.13;;;2.57;;
16892;SDS011;8563;52.242;9.098;2023-12-29T14:57:10;2.63;;;1.50;;
16892;SDS011;8563;52.242;9.098;2023-12-29T14:59:44;3.50;;;1.20;;
16892;SDS011;8563;52.242;9.098;2023-12-29T15:02:16;3.20;;;1.10;;
16892;SDS011;8563;52.242;9.098;2023-12-29T15:04:49;3.87;;;1.50;;
16892;SDS011;8563;52.242;9.098;2023-12-29T15:07:22;4.30;;;1.33;;
16892;SDS011;8563;52.242;9.098;2023-12-29T15:09:59;4.47;;;1.53;;
16892;SDS011;8563;52.242;9.098;2023-12-29T15:12:32;4.90;;;2.10;;
16892;SDS011;8563;52.242;9.098;2023-12-29T15:15:06;3.10;;;1.33;;
16892;SDS011;8563;52.242;9.098;2023-12-29T15:17:39;3.30;;;1.50;;
16892;SDS011;8563;52.242;9.098;2023-12-29T15:20:11;4.60;;;2.20;;
16892;SDS011;8563;52.242;9.098;2023-12-29T15:22:44;4.07;;;1.30;;
16892;SDS011;8563;52.242;9.098;2023-12-29T15:25:16;5.67;;;2.60;;
16892;SDS011;8563;52.242;9.098;2023-12-29T15:27:49;3.10;;;1.27;;
16892;SDS011;8563;52.242;9.098;2023-12-29T15:30:23;4.13;;;1.43;;
16892;SDS011;8563;52.242;9.098;2023-12-29T15:32:56;6.57;;;1.77;;
16892;SDS011;8563;52.242;9.098;2023-12-29T15:35:28;4.97;;;1.60;;
16892;SDS011;8563;52.242;9.098;2023-12-29T15:38:00;2.97;;;1.60;;
16892;SDS011;8563;52.242;9.098;2023-12-29T15:40:33;4.27;;;1.50;;